Time;durP1;ratioP1;P1;durP2;ratioP2;P2;SDS_P1;SDS_P2;PMS_P1;PMS_P2;Temp;Humidity;BMP_temperature;BMP_pressure;BME280_temperature;BME280_humidity;BME280_pressure;Samples;Min_cycle;Max_cycle;Signal;HPM_P1;HPM_P2
2021/08/18 00:00:46;;;;;;;5.68;2.92;;;13.30;88.20;;;;;;4973974;28;20038;-83
2021/08/18 00:03:14;;;;;;;7.20;3.40;;;13.30;88.30;;;;;;4994425;28;20034;-83
2021/08/18 00:05:40;;;;;;;5.93;3.17;;;13.30;88.40;;;;;;4998142;28;20054;-83
2021/08/18 00:08:07;;;;;;;6.20;2.78;;;13.30;88.80;;;;;;5000485;28;20026;-83
2021/08/18 00:10:34;;;;;;;6.32;3.08;;;13.30;88.70;;;;;;4978301;28;20050;-83
2021/08/18 00:12:59;;;;;;;5.55;2.80;;;13.20;88.70;;;;;;4995550;28;20535;-83
2021/08/18 00:15:26;;;;;;;6.45;3.22;;;13.10;89.20;;;;;;4998566;28;20122;-83
2021/08/18 00:17:56;;;;;;;6.22;3.50;;;13.00;89.70;;;;;;4988522;28;20490;-83
2021/08/18 00:20:21;;;;;;;6.00;2.88;;;13.10;89.80;;;;;;4997518;28;20095;-83
2021/08/18 00:22:47;;;;;;;4.30;3.10;;;13.00;90.40;;;;;;4997496;28;20035;-83
2021/08/18 00:25:13;;;;;;;7.47;2.85;;;13.00;90.00;;;;;;4996572;28;20026;-83
2021/08/18 00:27:39;;;;;;;4.72;3.03;;;12.90;90.20;;;;;;4982601;28;20026;-83
2021/08/18 00:30:05;;;;;;;8.40;3.00;;;13.00;90.20;;;;;;4986036;28;20040;-83
2021/08/18 00:32:34;;;;;;;6.28;3.40;;;12.90;90.00;;;;;;4993180;28;20030;-83
2021/08/18 00:35:00;;;;;;;5.53;2.60;;;13.00;90.00;;;;;;5020135;28;20706;-83
2021/08/18 00:37:26;;;;;;;6.40;2.75;;;12.90;90.10;;;;;;4978900;28;20022;-84
2021/08/18 00:39:52;;;;;;;6.00;2.67;;;12.90;90.10;;;;;;4980557;28;20027;-84
2021/08/18 00:42:18;;;;;;;6.82;3.28;;;13.00;90.50;;;;;;4981250;28;20046;-83
2021/08/18 00:44:44;;;;;;;5.97;2.95;;;13.00;90.00;;;;;;4994020;28;20112;-83
2021/08/18 00:47:10;;;;;;;6.63;3.00;;;13.00;90.00;;;;;;5012343;28;20070;-83
2021/08/18 00:49:35;;;;;;;7.18;3.22;;;13.00;90.10;;;;;;4989008;28;20037;-83
2021/08/18 00:52:02;;;;;;;6.95;2.90;;;13.10;90.10;;;;;;4996253;28;20077;-83
2021/08/18 00:54:28;;;;;;;7.55;3.20;;;13.10;90.00;;;;;;4977314;28;20033;-83
2021/08/18 00:57:00;;;;;;;6.60;3.22;;;13.10;89.90;;;;;;5001521;28;20050;-83
2021/08/18 00:59:26;;;;;;;7.30;3.47;;;13.10;89.40;;;;;;4979944;28;20034;-83
2021/08/18 01:01:52;;;;;;;5.68;2.97;;;13.10;90.00;;;;;;4997477;28;20041;-83
2021/08/18 01:04:18;;;;;;;5.72;3.17;;;13.00;89.80;;;;;;4981115;28;20030;-83
2021/08/18 01:06:45;;;;;;;6.25;3.17;;;13.00;89.80;;;;;;4993564;28;20042;-83
2021/08/18 01:09:17;;;;;;;7.07;3.17;;;13.00;89.90;;;;;;4993663;28;20031;-83
2021/08/18 01:11:45;;;;;;;6.80;3.30;;;13.00;90.00;;;;;;4994099;28;20046;-83
2021/08/18 01:14:11;;;;;;;5.72;3.03;;;13.00;90.00;;;;;;4992213;28;20035;-83
2021/08/18 01:16:43;;;;;;;5.47;2.65;;;13.00;90.10;;;;;;4991966;28;20059;-83
2021/08/18 01:19:10;;;;;;;6.40;3.35;;;13.10;89.80;;;;;;4993165;28;20027;-83
2021/08/18 01:21:40;;;;;;;7.63;3.15;;;13.00;90.10;;;;;;4976053;28;20084;-83
2021/08/18 01:24:08;;;;;;;6.18;2.88;;;13.00;90.10;;;;;;4989691;28;20050;-83
2021/08/18 01:26:35;;;;;;;6.95;3.25;;;13.00;90.10;;;;;;4995387;28;21676;-83
2021/08/18 01:29:01;;;;;;;7.35;3.10;;;12.90;90.30;;;;;;4974547;28;20030;-83
2021/08/18 01:31:27;;;;;;;8.20;3.08;;;13.00;90.50;;;;;;4976318;28;20042;-83
2021/08/18 01:33:57;;;;;;;6.82;2.97;;;12.90;90.40;;;;;;4992976;28;20035;-83
2021/08/18 01:36:22;;;;;;;7.82;3.72;;;13.00;90.30;;;;;;4980640;28;20037;-83
2021/08/18 01:38:48;;;;;;;7.40;3.15;;;13.00;90.30;;;;;;4976015;28;20299;-83
2021/08/18 01:41:14;;;;;;;8.38;3.40;;;12.90;90.70;;;;;;4990686;28;20393;-82
2021/08/18 01:43:40;;;;;;;7.45;3.50;;;12.90;90.50;;;;;;4980686;28;20103;-83
2021/08/18 01:46:06;;;;;;;7.05;3.47;;;13.00;90.60;;;;;;4979845;28;20039;-83
2021/08/18 01:48:33;;;;;;;8.27;3.55;;;12.90;90.50;;;;;;4980225;28;20083;-82
2021/08/18 01:51:00;;;;;;;7.43;3.50;;;13.00;90.50;;;;;;4998619;28;20034;-83
2021/08/18 01:53:30;;;;;;;5.53;3.10;;;12.90;90.60;;;;;;4993843;28;20150;-83
2021/08/18 01:56:03;;;;;;;5.82;3.05;;;12.90;90.50;;;;;;4993264;28;20042;-84
2021/08/18 01:58:33;;;;;;;8.10;3.20;;;12.90;90.60;;;;;;4973784;28;20081;-82
2021/08/18 02:01:00;;;;;;;7.68;3.75;;;12.90;90.70;;;;;;4977424;28;20042;-82
2021/08/18 02:03:25;;;;;;;6.82;3.15;;;12.90;90.60;;;;;;4975448;28;20034;-82
2021/08/18 02:05:54;;;;;;;7.80;3.97;;;12.90;90.50;;;;;;4993466;28;20033;-83
2021/08/18 02:08:19;;;;;;;7.40;3.35;;;12.80;90.60;;;;;;4992485;28;20049;-82
2021/08/18 02:10:45;;;;;;;6.78;3.92;;;12.90;90.50;;;;;;4978351;28;20030;-83
2021/08/18 02:13:12;;;;;;;7.88;3.20;;;12.90;90.60;;;;;;4995907;28;20447;-82
2021/08/18 02:15:37;;;;;;;7.38;3.30;;;12.80;90.70;;;;;;4974397;28;20129;-82
2021/08/18 02:18:05;;;;;;;8.63;3.63;;;12.80;90.90;;;;;;4978876;28;20058;-82
2021/08/18 02:20:33;;;;;;;8.95;3.40;;;12.80;91.00;;;;;;4983212;28;20026;-82
2021/08/18 02:22:59;;;;;;;7.72;3.53;;;12.80;91.10;;;;;;4996250;28;20034;-82
2021/08/18 02:25:26;;;;;;;7.97;3.60;;;12.90;91.10;;;;;;5003721;28;20030;-83
2021/08/18 02:27:53;;;;;;;9.70;4.35;;;12.90;91.10;;;;;;5001350;28;20045;-82
2021/08/18 02:30:22;;;;;;;9.23;4.13;;;12.80;91.30;;;;;;5000585;28;20588;-82
2021/08/18 02:32:49;;;;;;;9.63;3.80;;;12.80;91.40;;;;;;4982252;28;20030;-83
2021/08/18 02:35:16;;;;;;;11.00;4.07;;;12.90;91.50;;;;;;5004039;28;21400;-82
2021/08/18 02:37:42;;;;;;;9.82;3.85;;;12.90;91.40;;;;;;5001909;28;20031;-83
2021/08/18 02:40:09;;;;;;;13.57;4.90;;;12.80;91.50;;;;;;4996426;28;20030;-83
2021/08/18 02:42:36;;;;;;;11.65;4.63;;;12.90;91.40;;;;;;4996728;28;20482;-82
2021/08/18 02:45:02;;;;;;;10.75;4.22;;;12.90;91.50;;;;;;4999321;28;20033;-82
2021/08/18 02:47:28;;;;;;;10.23;4.05;;;12.90;91.60;;;;;;4983469;28;20018;-82
2021/08/18 02:49:54;;;;;;;9.00;4.53;;;12.90;91.60;;;;;;5000098;28;20034;-84
2021/08/18 02:52:20;;;;;;;8.10;4.03;;;12.90;91.90;;;;;;5007459;28;20025;-82
2021/08/18 02:54:45;;;;;;;10.90;4.38;;;12.90;91.80;;;;;;4997355;28;20098;-83
2021/08/18 02:57:11;;;;;;;10.15;4.53;;;12.90;92.00;;;;;;5000293;28;20057;-81
2021/08/18 02:59:37;;;;;;;10.30;4.43;;;12.90;92.10;;;;;;4981529;28;20030;-81
2021/08/18 03:02:03;;;;;;;12.10;4.85;;;12.90;92.20;;;;;;4980764;28;20554;-81
2021/08/18 03:04:29;;;;;;;12.50;5.20;;;12.90;92.20;;;;;;4987776;28;20390;-81
2021/08/18 03:06:55;;;;;;;11.73;4.35;;;12.90;92.10;;;;;;4998305;28;20037;-82
2021/08/18 03:09:24;;;;;;;10.32;4.43;;;13.00;92.20;;;;;;5001211;28;20034;-81
2021/08/18 03:11:53;;;;;;;12.50;5.15;;;12.90;92.20;;;;;;4999583;28;20363;-81
2021/08/18 03:14:20;;;;;;;13.68;5.90;;;13.00;92.30;;;;;;5002482;28;20070;-82
2021/08/18 03:16:47;;;;;;;13.60;5.10;;;13.00;92.00;;;;;;4998783;28;20511;-82
2021/08/18 03:19:13;;;;;;;11.93;4.60;;;13.10;92.10;;;;;;5001358;28;20050;-82
2021/08/18 03:21:38;;;;;;;11.88;5.18;;;13.10;92.40;;;;;;4997130;28;20034;-82
2021/08/18 03:24:05;;;;;;;11.85;5.72;;;13.10;92.30;;;;;;5000570;28;20033;-82
2021/08/18 03:26:31;;;;;;;14.25;5.75;;;13.10;92.20;;;;;;4994432;28;20403;-81
2021/08/18 03:28:56;;;;;;;12.40;4.85;;;13.10;92.30;;;;;;4975924;28;20030;-82
2021/08/18 03:31:22;;;;;;;14.65;5.80;;;13.10;92.30;;;;;;5007536;28;20041;-82
2021/08/18 03:33:48;;;;;;;11.18;4.97;;;13.10;92.40;;;;;;4986551;28;20497;-81
2021/08/18 03:36:13;;;;;;;10.48;4.75;;;13.20;92.20;;;;;;5000165;28;20176;-81
2021/08/18 03:38:39;;;;;;;15.48;5.00;;;13.10;92.40;;;;;;4982384;28;20041;-82
2021/08/18 03:41:06;;;;;;;11.98;5.13;;;13.20;92.30;;;;;;4996168;28;20104;-81
2021/08/18 03:43:31;;;;;;;16.88;6.32;;;13.30;92.10;;;;;;4997410;28;20014;-81
2021/08/18 03:45:57;;;;;;;12.23;5.22;;;13.30;92.20;;;;;;4994534;28;20035;-81
2021/08/18 03:48:23;;;;;;;13.68;4.70;;;13.30;92.10;;;;;;4981555;28;20026;-81
2021/08/18 03:50:49;;;;;;;13.50;4.93;;;13.30;92.20;;;;;;4999767;28;20045;-81
2021/08/18 03:53:16;;;;;;;12.85;4.90;;;13.30;92.00;;;;;;4995627;28;20026;-82
2021/08/18 03:55:42;;;;;;;11.98;5.47;;;13.30;92.00;;;;;;4972352;28;20041;-81
2021/08/18 03:58:07;;;;;;;10.48;4.75;;;13.40;92.10;;;;;;4979500;28;20026;-81
2021/08/18 04:00:33;;;;;;;13.20;4.78;;;13.30;92.30;;;;;;4980941;28;20050;-81
2021/08/18 04:03:00;;;;;;;11.88;5.68;;;13.30;92.10;;;;;;4995484;28;20038;-81
2021/08/18 04:05:26;;;;;;;13.95;5.22;;;13.40;92.00;;;;;;4997012;28;20486;-81
2021/08/18 04:07:51;;;;;;;16.52;5.07;;;13.40;92.10;;;;;;4999998;28;20034;-80
2021/08/18 04:10:17;;;;;;;14.27;6.25;;;13.30;92.20;;;;;;5003850;28;20065;-81
2021/08/18 04:12:57;;;;;;;13.55;5.78;;;13.40;92.20;;;;;;4994924;28;20030;-81
2021/08/18 04:15:28;;;;;;;14.05;5.15;;;13.40;92.10;;;;;;4981797;28;20038;-81
2021/08/18 04:17:54;;;;;;;14.27;5.80;;;13.40;92.10;;;;;;4977188;28;20042;-82
2021/08/18 04:20:21;;;;;;;10.73;5.00;;;13.40;92.10;;;;;;4993979;28;20497;-81
2021/08/18 04:22:47;;;;;;;12.38;5.10;;;13.40;92.10;;;;;;4997342;28;20372;-81
2021/08/18 04:25:15;;;;;;;13.80;6.43;;;13.40;92.20;;;;;;4994849;28;20022;-81
2021/08/18 04:27:41;;;;;;;13.05;5.28;;;13.40;92.00;;;;;;4977547;28;20026;-82
2021/08/18 04:30:10;;;;;;;14.70;5.60;;;13.40;92.00;;;;;;4980485;28;20034;-81
2021/08/18 04:32:36;;;;;;;19.17;5.45;;;13.40;92.00;;;;;;4982675;28;20037;-81
2021/08/18 04:35:03;;;;;;;16.30;6.13;;;13.40;92.20;;;;;;4998005;28;20129;-81
2021/08/18 04:37:29;;;;;;;16.95;7.05;;;13.40;92.20;;;;;;4992113;28;20039;-81
2021/08/18 04:39:54;;;;;;;13.10;5.05;;;13.40;92.00;;;;;;4993087;28;20097;-81
2021/08/18 04:42:20;;;;;;;15.55;6.40;;;13.40;92.10;;;;;;4997768;28;20118;-81
2021/08/18 04:44:46;;;;;;;15.50;5.63;;;13.50;92.10;;;;;;4995277;28;20026;-82
2021/08/18 04:47:11;;;;;;;16.17;5.88;;;13.50;92.20;;;;;;4992202;28;20037;-81
2021/08/18 04:49:37;;;;;;;16.75;6.00;;;13.50;92.00;;;;;;4987197;28;20030;-81
2021/08/18 04:52:03;;;;;;;17.05;5.93;;;13.60;91.90;;;;;;4999416;28;20061;-82
2021/08/18 04:54:29;;;;;;;12.82;4.88;;;13.50;91.80;;;;;;5000093;28;20031;-82
2021/08/18 04:56:54;;;;;;;17.02;5.40;;;13.50;91.90;;;;;;4995141;28;20060;-81
2021/08/18 04:59:20;;;;;;;14.75;6.22;;;13.60;91.80;;;;;;4995403;28;20030;-82
2021/08/18 05:01:46;;;;;;;16.52;5.43;;;13.60;91.90;;;;;;4992101;28;20045;-82
2021/08/18 05:04:11;;;;;;;16.65;5.70;;;13.60;91.80;;;;;;4995668;28;20053;-82
2021/08/18 05:06:37;;;;;;;13.85;5.95;;;13.60;91.60;;;;;;4993034;28;20031;-82
2021/08/18 05:09:03;;;;;;;14.63;5.82;;;13.60;91.90;;;;;;4994213;28;20109;-82
2021/08/18 05:11:29;;;;;;;15.32;5.68;;;13.60;91.80;;;;;;4998694;28;20117;-81
2021/08/18 05:13:55;;;;;;;15.75;6.18;;;13.60;91.80;;;;;;4991746;28;20066;-81
2021/08/18 05:16:20;;;;;;;13.25;5.00;;;13.70;91.80;;;;;;5010490;28;20049;-81
2021/08/18 05:18:46;;;;;;;12.13;5.65;;;13.70;91.90;;;;;;4994237;28;20033;-82
2021/08/18 05:21:12;;;;;;;15.85;6.32;;;13.70;91.90;;;;;;4993875;28;20030;-82
2021/08/18 05:23:38;;;;;;;13.05;5.60;;;13.70;91.90;;;;;;4996347;28;20022;-81
2021/08/18 05:26:03;;;;;;;15.52;6.53;;;13.70;92.00;;;;;;4992002;28;20104;-82
2021/08/18 05:28:29;;;;;;;13.95;5.57;;;13.80;91.90;;;;;;4986686;28;20030;-82
2021/08/18 05:30:55;;;;;;;17.25;6.28;;;13.70;91.70;;;;;;5001487;28;20066;-81
2021/08/18 05:33:21;;;;;;;11.15;5.25;;;13.80;92.10;;;;;;4978831;28;20548;-82
2021/08/18 05:35:47;;;;;;;16.98;6.78;;;13.80;91.90;;;;;;5001993;28;20121;-82
2021/08/18 05:38:12;;;;;;;12.35;5.40;;;13.80;91.90;;;;;;4992569;28;20018;-81
2021/08/18 05:40:38;;;;;;;15.43;7.13;;;13.90;92.10;;;;;;4975820;28;20353;-81
2021/08/18 05:43:04;;;;;;;16.38;5.93;;;13.90;91.80;;;;;;4993037;28;20027;-81
2021/08/18 05:45:29;;;;;;;14.38;6.30;;;13.90;91.60;;;;;;4993400;28;20076;-82
2021/08/18 05:47:55;;;;;;;15.80;6.00;;;13.90;91.70;;;;;;4994078;28;20034;-82
2021/08/18 05:50:21;;;;;;;13.20;5.35;;;13.90;91.60;;;;;;4994094;28;20050;-82
2021/08/18 05:52:46;;;;;;;16.88;6.22;;;13.90;91.80;;;;;;4978946;28;20078;-82
2021/08/18 05:55:12;;;;;;;15.90;6.95;;;14.00;91.90;;;;;;4976256;28;20030;-81
2021/08/18 05:57:38;;;;;;;16.20;5.47;;;14.00;91.90;;;;;;4978813;28;20018;-82
2021/08/18 06:00:05;;;;;;;19.35;6.05;;;14.00;92.00;;;;;;4992448;28;20096;-81
2021/08/18 06:02:31;;;;;;;14.77;6.22;;;14.00;92.10;;;;;;5005614;28;20062;-82
2021/08/18 06:04:56;;;;;;;15.73;5.72;;;14.10;91.80;;;;;;4993700;28;20061;-81
2021/08/18 06:07:23;;;;;;;15.00;6.60;;;14.10;91.60;;;;;;4995030;28;20030;-81
2021/08/18 06:09:49;;;;;;;17.40;6.70;;;14.10;91.70;;;;;;5000221;28;20340;-81
2021/08/18 06:12:14;;;;;;;16.08;6.70;;;14.20;91.70;;;;;;4992674;28;20030;-81
2021/08/18 06:14:41;;;;;;;14.55;6.97;;;14.20;91.60;;;;;;5004604;28;20026;-81
2021/08/18 06:17:07;;;;;;;16.85;6.32;;;14.30;91.90;;;;;;4995073;28;20026;-82
2021/08/18 06:19:33;;;;;;;14.63;6.57;;;14.30;91.60;;;;;;5011226;28;20046;-82
2021/08/18 06:21:59;;;;;;;13.10;6.93;;;14.30;91.30;;;;;;5003951;28;20035;-82
2021/08/18 06:24:29;;;;;;;17.65;6.47;;;14.30;91.40;;;;;;5002104;28;20010;-82
2021/08/18 06:26:56;;;;;;;16.63;6.60;;;14.30;91.40;;;;;;4983488;28;20026;-82
2021/08/18 06:29:24;;;;;;;18.13;6.80;;;14.30;91.30;;;;;;5005249;28;20029;-83
2021/08/18 06:31:52;;;;;;;15.00;6.97;;;14.30;91.00;;;;;;5004572;28;20042;-83
2021/08/18 06:34:18;;;;;;;18.55;8.90;;;14.40;91.00;;;;;;4998695;28;20033;-82
2021/08/18 06:36:45;;;;;;;17.77;7.25;;;14.40;90.80;;;;;;4999422;28;20487;-82
2021/08/18 06:39:10;;;;;;;20.75;6.78;;;14.30;91.10;;;;;;5001477;28;20646;-83
2021/08/18 06:41:37;;;;;;;16.67;6.82;;;14.40;91.40;;;;;;5001012;28;20090;-82
2021/08/18 06:44:03;;;;;;;16.50;7.07;;;14.40;91.30;;;;;;5006733;28;20077;-83
2021/08/18 06:46:29;;;;;;;16.88;7.15;;;14.40;91.10;;;;;;5001752;28;20042;-83
2021/08/18 06:48:55;;;;;;;20.88;8.35;;;14.40;91.20;;;;;;4998037;28;20053;-83
2021/08/18 06:51:20;;;;;;;22.77;6.60;;;14.50;91.90;;;;;;4998018;28;20100;-82
2021/08/18 06:53:46;;;;;;;19.33;7.65;;;14.50;90.80;;;;;;4980456;28;20081;-83
2021/08/18 06:56:11;;;;;;;19.67;7.57;;;14.60;91.10;;;;;;4998062;28;20061;-83
2021/08/18 06:58:37;;;;;;;22.27;7.78;;;14.60;90.60;;;;;;5003852;28;20029;-83
2021/08/18 07:01:06;;;;;;;18.67;7.65;;;14.70;90.80;;;;;;4981504;28;20045;-83
2021/08/18 07:03:33;;;;;;;19.23;7.55;;;14.70;90.90;;;;;;4999166;28;20430;-85
2021/08/18 07:05:58;;;;;;;18.10;7.93;;;14.70;90.40;;;;;;5000610;28;20037;-83
2021/08/18 07:08:26;;;;;;;18.13;7.57;;;14.80;90.60;;;;;;4982425;28;20023;-85
2021/08/18 07:10:53;;;;;;;22.25;8.15;;;14.90;90.70;;;;;;5005692;28;20118;-83
2021/08/18 07:13:20;;;;;;;23.50;8.63;;;14.90;90.00;;;;;;5000883;28;20750;-85
2021/08/18 07:15:46;;;;;;;19.75;8.02;;;14.90;88.80;;;;;;4992515;28;20038;-84
2021/08/18 07:18:12;;;;;;;18.45;8.30;;;14.90;90.30;;;;;;5001589;28;20378;-83
2021/08/18 07:20:37;;;;;;;18.73;8.13;;;14.90;90.50;;;;;;5000374;28;20113;-83
2021/08/18 07:23:03;;;;;;;22.48;8.63;;;15.00;90.50;;;;;;5003666;28;20434;-83
2021/08/18 07:25:29;;;;;;;19.67;8.10;;;15.00;89.80;;;;;;5003047;28;20026;-83
2021/08/18 07:27:55;;;;;;;21.50;9.18;;;15.00;89.70;;;;;;5001202;28;20033;-83
2021/08/18 07:30:21;;;;;;;20.15;7.50;;;15.10;90.00;;;;;;4984597;28;20042;-83
2021/08/18 07:32:47;;;;;;;19.70;7.88;;;15.10;89.10;;;;;;4997185;28;20022;-85
2021/08/18 07:35:13;;;;;;;21.15;8.13;;;15.20;88.20;;;;;;4999542;28;20027;-82
2021/08/18 07:37:38;;;;;;;18.73;8.20;;;15.20;90.10;;;;;;4980456;28;20084;-83
2021/08/18 07:40:05;;;;;;;20.73;8.02;;;15.20;87.90;;;;;;4987317;28;20018;-85
2021/08/18 07:42:31;;;;;;;20.17;7.53;;;15.20;87.90;;;;;;5001577;28;20033;-83
2021/08/18 07:44:56;;;;;;;18.30;7.97;;;15.20;88.10;;;;;;5009595;28;20306;-84
2021/08/18 07:47:23;;;;;;;16.25;7.03;;;15.20;87.30;;;;;;5003777;28;20030;-83
2021/08/18 07:49:49;;;;;;;20.90;9.35;;;15.20;87.70;;;;;;4982541;28;20045;-83
2021/08/18 07:52:15;;;;;;;18.25;8.10;;;15.20;87.10;;;;;;5000647;28;20034;-83
2021/08/18 07:54:41;;;;;;;18.83;8.20;;;15.30;87.80;;;;;;4978897;28;20070;-83
2021/08/18 07:57:06;;;;;;;19.80;8.38;;;15.20;87.30;;;;;;5002530;28;20029;-83
2021/08/18 07:59:35;;;;;;;20.17;7.55;;;15.20;86.50;;;;;;4995959;28;20045;-83
2021/08/18 08:02:00;;;;;;;19.48;8.23;;;15.30;87.50;;;;;;5001036;28;20101;-84
2021/08/18 08:04:26;;;;;;;20.15;8.23;;;15.30;85.80;;;;;;4996264;28;20073;-84
2021/08/18 08:06:52;;;;;;;17.40;7.30;;;15.30;86.10;;;;;;4993781;28;20034;-83
2021/08/18 08:09:18;;;;;;;18.25;7.10;;;15.30;86.30;;;;;;4994413;28;20034;-85
2021/08/18 08:11:45;;;;;;;24.75;8.05;;;15.40;85.60;;;;;;4999339;28;20037;-84
2021/08/18 08:14:11;;;;;;;23.73;9.07;;;15.40;85.50;;;;;;4991135;28;20030;-83
2021/08/18 08:16:36;;;;;;;14.70;7.50;;;15.50;86.10;;;;;;4994060;28;20045;-83
2021/08/18 08:19:02;;;;;;;16.42;7.50;;;15.50;84.90;;;;;;4995643;28;20027;-84
2021/08/18 08:21:28;;;;;;;16.77;7.45;;;15.50;84.80;;;;;;4981348;28;20026;-83
2021/08/18 08:23:54;;;;;;;18.02;7.40;;;15.50;84.40;;;;;;4991151;28;20146;-82
2021/08/18 08:26:20;;;;;;;17.52;6.88;;;15.60;84.90;;;;;;4992295;28;20061;-85
2021/08/18 08:28:45;;;;;;;18.80;7.95;;;15.70;84.10;;;;;;4996837;28;20135;-84
2021/08/18 08:31:11;;;;;;;14.07;6.20;;;15.90;86.60;;;;;;4995162;28;20041;-87
2021/08/18 08:33:37;;;;;;;18.60;7.60;;;16.10;85.50;;;;;;4993995;28;20030;-82
2021/08/18 08:36:03;;;;;;;15.05;6.47;;;16.10;82.70;;;;;;4993808;28;20045;-83
2021/08/18 08:38:29;;;;;;;16.48;7.55;;;16.10;83.50;;;;;;4994032;28;20037;-83
2021/08/18 08:40:55;;;;;;;18.65;7.28;;;16.10;83.80;;;;;;4975316;28;20126;-85
2021/08/18 08:43:23;;;;;;;18.30;7.32;;;16.00;83.00;;;;;;4997927;28;20026;-83
2021/08/18 08:45:49;;;;;;;20.45;7.50;;;16.00;82.50;;;;;;4990804;28;20463;-85
2021/08/18 08:48:16;;;;;;;13.48;6.50;;;16.00;83.80;;;;;;4995404;28;20037;-83
2021/08/18 08:50:44;;;;;;;13.80;5.93;;;16.00;82.10;;;;;;4994701;28;20540;-83
2021/08/18 08:53:10;;;;;;;15.05;5.60;;;16.00;83.50;;;;;;4978896;28;20036;-84
2021/08/18 08:55:36;;;;;;;15.02;6.78;;;16.00;81.50;;;;;;4993362;28;20046;-85
2021/08/18 08:58:02;;;;;;;13.10;6.40;;;16.00;81.90;;;;;;4995095;28;20033;-83
2021/08/18 09:00:29;;;;;;;15.75;5.75;;;16.00;83.30;;;;;;4997175;28;20109;-83
2021/08/18 09:03:07;;;;;;;15.18;6.82;;;16.10;84.40;;;;;;4994230;28;20561;-83
2021/08/18 09:05:34;;;;;;;16.27;6.43;;;16.30;84.30;;;;;;4992369;28;20101;-84
2021/08/18 09:08:00;;;;;;;15.95;6.70;;;16.50;81.70;;;;;;4996691;28;20084;-85
2021/08/18 09:10:26;;;;;;;11.35;5.85;;;16.60;82.70;;;;;;4996003;28;20113;-85
2021/08/18 09:13:08;;;;;;;14.68;6.57;;;16.70;82.70;;;;;;4993232;28;20018;-84
2021/08/18 09:15:34;;;;;;;13.77;5.80;;;16.90;82.30;;;;;;4991481;28;20027;-84
2021/08/18 09:17:59;;;;;;;13.65;6.38;;;17.00;80.10;;;;;;4997839;28;20031;-83
2021/08/18 09:20:30;;;;;;;13.13;6.53;;;17.00;80.30;;;;;;4995764;28;20094;-84
2021/08/18 09:23:00;;;;;;;14.48;5.82;;;16.90;80.50;;;;;;4992576;28;20041;-83
2021/08/18 09:25:41;;;;;;;15.55;5.90;;;16.80;79.40;;;;;;4998239;28;20061;-83
2021/08/18 09:28:06;;;;;;;15.18;6.18;;;16.80;79.50;;;;;;4983081;28;20033;-84
2021/08/18 09:30:35;;;;;;;11.90;5.70;;;16.80;79.30;;;;;;4984775;28;20034;-84
2021/08/18 09:33:09;;;;;;;10.95;5.63;;;16.80;80.10;;;;;;4997654;28;20490;-84
2021/08/18 09:35:34;;;;;;;13.00;6.45;;;16.80;79.90;;;;;;4992868;28;20046;-84
2021/08/18 09:38:07;;;;;;;13.25;6.30;;;17.00;80.10;;;;;;4995367;28;20030;-86
2021/08/18 09:40:38;;;;;;;14.90;6.55;;;17.10;79.70;;;;;;4996476;28;20023;-85
2021/08/18 09:43:16;;;;;;;12.45;6.18;;;17.10;79.20;;;;;;4971412;28;20382;-85
2021/08/18 09:45:43;;;;;;;14.48;6.30;;;17.30;80.10;;;;;;4968662;28;20533;-84
2021/08/18 09:48:18;;;;;;;11.93;5.72;;;17.30;77.40;;;;;;4994631;28;20092;-83
2021/08/18 09:50:57;;;;;;;11.90;5.97;;;17.20;78.30;;;;;;5006423;28;20398;-83
2021/08/18 09:53:31;;;;;;;10.73;5.07;;;17.30;78.50;;;;;;4993043;28;20367;-86
2021/08/18 09:56:01;;;;;;;12.48;5.72;;;17.50;78.80;;;;;;4992436;28;20034;-83
2021/08/18 09:58:28;;;;;;;9.85;4.57;;;17.50;78.80;;;;;;4989354;28;20034;-86
2021/08/18 10:00:55;;;;;;;11.75;5.55;;;17.50;75.00;;;;;;4973365;28;20146;-84
2021/08/18 10:03:21;;;;;;;10.63;4.70;;;17.30;76.10;;;;;;4987862;28;20025;-85
2021/08/18 10:05:50;;;;;;;10.55;4.60;;;17.40;80.00;;;;;;5006269;28;20101;-84
2021/08/18 10:08:18;;;;;;;9.32;4.72;;;17.40;76.20;;;;;;4976401;28;20110;-86
2021/08/18 10:10:47;;;;;;;9.77;4.68;;;17.30;76.10;;;;;;4997885;28;20030;-85
2021/08/18 10:13:14;;;;;;;10.48;4.82;;;17.30;78.30;;;;;;4995983;28;20033;-83
2021/08/18 10:15:40;;;;;;;11.00;5.45;;;17.20;77.10;;;;;;4989674;28;20513;-85
2021/08/18 10:18:07;;;;;;;11.68;5.78;;;17.30;78.00;;;;;;4990723;28;20018;-83
2021/08/18 10:20:34;;;;;;;10.48;5.22;;;17.20;78.20;;;;;;4996499;28;20022;-85
2021/08/18 10:23:03;;;;;;;9.18;4.95;;;17.20;76.20;;;;;;4990330;28;20037;-84
2021/08/18 10:25:49;;;;;;;15.18;5.75;;;17.10;78.60;;;;;;4992414;28;20427;-84
2021/08/18 10:28:16;;;;;;;11.50;5.35;;;17.00;78.10;;;;;;4971348;28;20019;-83
2021/08/18 10:30:46;;;;;;;10.98;4.97;;;17.00;79.20;;;;;;4997499;28;20038;-84
2021/08/18 10:33:32;;;;;;;14.13;5.82;;;17.00;79.40;;;;;;4988881;28;20105;-84
2021/08/18 10:35:58;;;;;;;11.40;5.57;;;17.00;78.70;;;;;;4975425;28;20410;-85
2021/08/18 10:38:27;;;;;;;9.70;4.50;;;16.90;77.50;;;;;;4984123;28;20029;-82
2021/08/18 10:40:53;;;;;;;11.38;5.30;;;16.90;79.10;;;;;;4974607;28;20034;-83
2021/08/18 10:43:50;;;;;;;10.60;5.00;;;16.90;78.50;;;;;;4998068;28;20069;-83
2021/08/18 10:46:16;;;;;;;11.40;5.53;;;17.00;78.50;;;;;;4986292;28;20034;-82
2021/08/18 10:49:26;;;;;;;12.45;5.50;;;17.20;80.90;;;;;;4974423;28;20114;-85
2021/08/18 10:51:53;;;;;;;11.23;4.88;;;17.20;78.20;;;;;;4956278;28;20041;-84
2021/08/18 10:54:27;;;;;;;12.05;5.28;;;17.10;77.60;;;;;;4988385;28;20030;-83
2021/08/18 10:56:58;;;;;;;10.18;5.07;;;17.00;78.00;;;;;;4987250;28;20034;-85
2021/08/18 10:59:36;;;;;;;9.98;4.93;;;17.10;78.10;;;;;;4993825;28;20027;-83
2021/08/18 11:02:07;;;;;;;13.55;5.25;;;17.10;78.50;;;;;;4967393;28;20037;-83
2021/08/18 11:05:13;;;;;;;8.68;4.95;;;17.10;77.80;;;;;;4970876;28;20089;-83
2021/08/18 11:08:09;;;;;;;11.43;5.93;;;17.20;80.20;;;;;;4984839;28;20076;-84
2021/08/18 11:10:39;;;;;;;12.68;5.22;;;17.20;78.30;;;;;;4972150;28;20027;-83
2021/08/18 11:13:07;;;;;;;12.35;5.25;;;17.30;78.00;;;;;;4980481;28;20029;-85
2021/08/18 11:15:32;;;;;;;10.63;4.85;;;17.20;77.90;;;;;;4988918;28;20483;-84
2021/08/18 11:17:58;;;;;;;13.32;5.30;;;17.20;77.20;;;;;;4996254;28;20041;-82
2021/08/18 11:20:27;;;;;;;10.23;5.10;;;17.30;78.70;;;;;;4995921;28;20034;-83
2021/08/18 11:22:54;;;;;;;11.60;5.40;;;17.30;78.00;;;;;;4982222;28;20026;-83
2021/08/18 11:25:20;;;;;;;10.65;4.75;;;17.20;77.50;;;;;;4992816;28;20465;-82
2021/08/18 11:27:51;;;;;;;10.70;4.85;;;17.20;78.50;;;;;;4979761;28;20085;-82
2021/08/18 11:30:26;;;;;;;7.85;4.38;;;17.30;78.50;;;;;;4990198;28;20026;-84
2021/08/18 11:32:53;;;;;;;11.00;4.43;;;17.30;78.10;;;;;;4992309;28;20038;-84
2021/08/18 11:35:36;;;;;;;11.45;5.07;;;17.40;78.10;;;;;;4979464;28;20027;-83
2021/08/18 11:38:06;;;;;;;9.77;5.13;;;17.40;79.40;;;;;;5002494;28;20170;-85
2021/08/18 11:40:32;;;;;;;13.23;5.22;;;17.40;77.00;;;;;;4992128;28;20030;-84
2021/08/18 11:42:58;;;;;;;10.10;5.30;;;17.40;77.60;;;;;;4992638;28;20085;-84
2021/08/18 11:45:24;;;;;;;11.05;4.78;;;17.50;76.50;;;;;;4998371;28;20022;-84
2021/08/18 11:47:51;;;;;;;10.65;4.85;;;17.60;78.80;;;;;;4993919;28;20121;-85
2021/08/18 11:50:18;;;;;;;9.75;4.72;;;17.70;79.20;;;;;;5000887;28;20109;-83
2021/08/18 11:52:44;;;;;;;10.63;5.22;;;17.60;77.50;;;;;;4996056;28;20042;-86
2021/08/18 11:55:10;;;;;;;9.02;4.38;;;17.60;76.80;;;;;;4996747;28;20033;-84
2021/08/18 11:57:36;;;;;;;9.10;4.57;;;17.60;77.20;;;;;;5001226;28;20038;-84
2021/08/18 12:00:07;;;;;;;9.63;4.90;;;17.60;77.50;;;;;;4996424;28;20106;-84
2021/08/18 12:02:34;;;;;;;9.10;4.60;;;17.60;78.10;;;;;;4978046;28;20153;-85
2021/08/18 12:05:03;;;;;;;12.13;4.90;;;17.70;77.90;;;;;;4993890;28;20030;-83
2021/08/18 12:07:30;;;;;;;8.38;3.70;;;17.80;77.70;;;;;;4996868;28;20030;-84
2021/08/18 12:10:11;;;;;;;10.57;4.68;;;17.80;77.10;;;;;;4995813;28;20041;-84
2021/08/18 12:12:37;;;;;;;8.82;4.28;;;17.80;76.70;;;;;;5003510;28;20022;-83
2021/08/18 12:15:15;;;;;;;11.05;4.13;;;17.90;76.90;;;;;;5004789;28;20117;-83
2021/08/18 12:17:43;;;;;;;7.72;4.32;;;17.90;77.00;;;;;;4996052;28;20105;-83
2021/08/18 12:20:26;;;;;;;9.25;4.40;;;17.90;76.20;;;;;;4993550;28;20031;-84
2021/08/18 12:22:52;;;;;;;7.13;3.78;;;17.80;76.40;;;;;;4985052;28;20030;-83
2021/08/18 12:25:18;;;;;;;9.60;4.32;;;17.70;75.80;;;;;;4991094;28;20022;-85
2021/08/18 12:27:44;;;;;;;11.02;4.85;;;17.70;76.60;;;;;;4979472;28;20037;-84
2021/08/18 12:30:13;;;;;;;10.23;4.30;;;17.60;75.70;;;;;;4993198;28;20034;-84
2021/08/18 12:32:40;;;;;;;9.23;4.65;;;17.60;77.10;;;;;;4998704;28;20088;-84
2021/08/18 12:35:10;;;;;;;8.30;4.47;;;17.70;77.50;;;;;;4988105;28;20033;-84
2021/08/18 12:37:39;;;;;;;8.35;3.90;;;17.70;75.40;;;;;;4991295;28;20033;-84
2021/08/18 12:40:09;;;;;;;9.55;4.55;;;17.70;75.10;;;;;;4992321;28;20096;-85
2021/08/18 12:42:37;;;;;;;11.35;4.38;;;17.70;76.50;;;;;;4989057;28;20026;-85